Time;durP1;ratioP1;P1;durP2;ratioP2;P2;SDS_P1;SDS_P2;PMS_P1;PMS_P2;Temp;Humidity;BMP_temperature;BMP_pressure;BME280_temperature;BME280_humidity;BME280_pressure;Samples;Min_cycle;Max_cycle;Signal;HPM_P1;HPM_P2
2023/04/09 00:00:21;;;;;;;44.17;27.25;;;;;;;5.41;87.50;102168.13;4948505;28;20191;-71
2023/04/09 00:02:50;;;;;;;43.25;27.65;;;;;;;5.43;87.68;102168.84;4952048;28;20663;-71
2023/04/09 00:05:19;;;;;;;44.50;28.05;;;;;;;5.30;87.81;102165.56;4953570;28;20684;-71
2023/04/09 00:07:48;;;;;;;38.92;25.90;;;;;;;5.29;88.51;102171.91;4953806;28;20662;-70
2023/04/09 00:10:19;;;;;;;39.38;26.90;;;;;;;5.46;88.39;102160.53;4951739;28;20666;-70
2023/04/09 00:12:48;;;;;;;44.80;26.95;;;;;;;5.28;87.90;102156.78;4954006;28;20709;-72
2023/04/09 00:15:17;;;;;;;40.85;27.27;;;;;;;5.26;88.21;102153.41;4954740;28;20211;-71
2023/04/09 00:17:58;;;;;;;40.90;27.98;;;;;;;5.19;89.26;102160.28;4953688;28;20577;-70
2023/04/09 00:20:28;;;;;;;37.42;28.35;;;;;;;5.04;89.50;102159.81;4952419;28;20620;-71
2023/04/09 00:22:57;;;;;;;42.45;27.30;;;;;;;5.34;89.91;102153.56;4951447;28;20231;-70
2023/04/09 00:25:28;;;;;;;42.95;28.63;;;;;;;5.22;90.03;102154.66;4947960;28;20667;-69
2023/04/09 00:27:57;;;;;;;45.72;28.25;;;;;;;5.05;90.28;102157.97;4951540;28;20661;-69
2023/04/09 00:30:28;;;;;;;39.15;27.48;;;;;;;4.97;90.27;102163.19;4950718;28;20233;-70
2023/04/09 00:32:57;;;;;;;51.25;31.23;;;;;;;4.88;90.46;102158.63;4967367;28;20234;-70
2023/04/09 00:35:26;;;;;;;43.75;28.67;;;;;;;4.79;91.04;102161.13;4948225;28;20709;-72
2023/04/09 00:37:55;;;;;;;45.58;27.33;;;;;;;5.11;91.83;102152.09;4965602;28;20203;-67
2023/04/09 00:40:25;;;;;;;40.55;27.55;;;;;;;5.30;91.31;102144.09;4948642;28;20205;-71
2023/04/09 00:42:55;;;;;;;41.88;27.13;;;;;;;5.31;91.02;102144.94;4950813;28;20195;-71
2023/04/09 00:45:24;;;;;;;49.42;33.13;;;;;;;5.14;89.96;102149.13;4954686;28;20504;-70
2023/04/09 00:47:54;;;;;;;41.40;26.58;;;;;;;4.97;90.46;102147.09;4948341;28;20612;-69
2023/04/09 00:50:23;;;;;;;41.78;28.52;;;;;;;4.98;91.20;102148.78;4950452;28;20203;-68
2023/04/09 00:52:52;;;;;;;45.60;30.30;;;;;;;4.85;91.73;102148.16;4947561;28;20198;-71
2023/04/09 00:55:22;;;;;;;46.08;29.20;;;;;;;4.97;92.44;102152.47;4949300;29;20199;-71
2023/04/09 00:57:52;;;;;;;44.35;26.60;;;;;;;4.95;92.44;102149.03;4949346;28;20250;-71
2023/04/09 01:00:21;;;;;;;42.90;30.20;;;;;;;5.01;92.63;102151.19;4948749;28;20199;-70
2023/04/09 01:02:51;;;;;;;44.97;29.13;;;;;;;4.94;92.91;102152.75;4952799;28;20215;-71
2023/04/09 01:05:21;;;;;;;45.03;29.92;;;;;;;4.75;92.89;102148.13;4949908;28;20194;-69
2023/04/09 01:08:01;;;;;;;45.28;28.73;;;;;;;4.59;93.23;102147.78;4950770;28;20199;-72
2023/04/09 01:10:36;;;;;;;46.63;29.98;;;;;;;4.50;94.26;102148.56;4952650;28;20219;-68
2023/04/09 01:13:13;;;;;;;48.10;29.52;;;;;;;4.54;94.78;102144.63;4944992;28;20194;-71
2023/04/09 01:15:47;;;;;;;47.47;30.00;;;;;;;4.64;94.93;102143.72;4950180;28;20214;-68
2023/04/09 01:18:22;;;;;;;48.70;29.63;;;;;;;4.65;95.13;102145.38;4950581;28;20262;-71
2023/04/09 01:20:58;;;;;;;53.50;27.90;;;;;;;4.69;95.20;102144.16;4944928;28;20686;-69
2023/04/09 01:23:37;;;;;;;45.28;29.80;;;;;;;4.55;94.83;102146.34;4949521;28;20723;-71
2023/04/09 01:26:18;;;;;;;40.75;26.15;;;;;;;4.48;94.28;102151.38;4957509;28;20197;-69
2023/04/09 01:28:57;;;;;;;49.33;28.77;;;;;;;4.33;94.13;102153.53;4956887;28;20732;-70
2023/04/09 01:31:30;;;;;;;47.90;27.85;;;;;;;4.53;94.64;102148.28;4955129;29;20290;-70
2023/04/09 01:34:01;;;;;;;45.80;28.20;;;;;;;4.37;94.56;102148.75;4958417;28;20213;-70
2023/04/09 01:36:32;;;;;;;51.60;29.55;;;;;;;4.47;94.21;102152.34;4951818;28;20790;-68
2023/04/09 01:39:02;;;;;;;44.35;27.73;;;;;;;4.46;93.20;102153.31;4953050;28;20701;-72
2023/04/09 01:41:34;;;;;;;44.47;29.40;;;;;;;4.68;93.37;102155.00;4961172;28;20225;-70
2023/04/09 01:44:06;;;;;;;48.65;29.60;;;;;;;4.64;93.75;102159.78;4957837;28;20232;-71
2023/04/09 01:46:36;;;;;;;45.95;27.20;;;;;;;4.50;93.15;102160.13;4955205;29;20221;-72
2023/04/09 01:49:06;;;;;;;40.65;27.30;;;;;;;4.65;92.61;102157.94;4955327;28;20294;-71
2023/04/09 01:51:36;;;;;;;40.95;27.85;;;;;;;4.70;91.84;102164.59;4956656;28;20196;-71
2023/04/09 01:54:05;;;;;;;37.83;25.05;;;;;;;4.68;92.05;102163.91;4950898;28;20700;-70
2023/04/09 01:56:44;;;;;;;41.63;29.50;;;;;;;4.57;92.56;102161.28;4951236;28;20210;-70
2023/04/09 01:59:15;;;;;;;43.15;26.80;;;;;;;4.50;92.71;102168.19;4949294;28;20798;-70
2023/04/09 02:01:46;;;;;;;45.47;29.02;;;;;;;4.35;93.80;102170.34;4954041;28;20285;-70
2023/04/09 02:04:22;;;;;;;38.97;27.20;;;;;;;4.34;94.15;102167.78;4949083;28;20201;-69
2023/04/09 02:06:58;;;;;;;47.92;29.30;;;;;;;4.37;94.31;102168.38;4955161;28;20199;-71
2023/04/09 02:09:37;;;;;;;48.85;28.77;;;;;;;4.47;93.88;102171.09;4949877;29;20230;-69
2023/04/09 02:12:12;;;;;;;50.55;27.88;;;;;;;4.38;93.92;102172.75;4957501;28;20197;-72
2023/04/09 02:14:45;;;;;;;44.50;28.85;;;;;;;4.22;94.28;102171.50;4952127;29;20305;-70
2023/04/09 02:17:14;;;;;;;45.72;28.50;;;;;;;4.21;95.07;102164.47;4953529;28;20677;-68
2023/04/09 02:19:45;;;;;;;50.20;30.17;;;;;;;4.17;95.59;102169.22;4947943;28;20245;-68
2023/04/09 02:22:15;;;;;;;43.58;27.50;;;;;;;4.13;96.04;102170.44;4947327;28;20600;-70
2023/04/09 02:24:44;;;;;;;42.63;27.00;;;;;;;4.11;96.49;102168.91;4950598;29;20538;-69
2023/04/09 02:27:13;;;;;;;40.50;29.15;;;;;;;4.03;96.44;102168.66;4953332;29;20194;-71
2023/04/09 02:29:44;;;;;;;39.17;26.55;;;;;;;4.07;96.54;102168.28;4956998;28;20214;-68
2023/04/09 02:32:13;;;;;;;46.92;27.50;;;;;;;4.09;96.77;102173.50;4948295;28;20206;-70
2023/04/09 02:34:42;;;;;;;39.75;28.02;;;;;;;4.03;96.94;102176.72;4949902;28;20281;-69
2023/04/09 02:37:11;;;;;;;37.67;27.17;;;;;;;4.06;97.16;102171.97;4952492;28;20273;-69
2023/04/09 02:39:40;;;;;;;44.45;28.45;;;;;;;4.08;97.17;102175.34;4952234;28;20598;-70
2023/04/09 02:42:09;;;;;;;40.33;25.23;;;;;;;4.08;97.48;102179.84;4951643;28;20606;-70
2023/04/09 02:44:38;;;;;;;41.88;26.38;;;;;;;4.02;97.48;102169.66;4952154;28;20678;-72
2023/04/09 02:47:09;;;;;;;42.60;28.75;;;;;;;4.00;98.17;102174.28;4950362;28;20199;-70
2023/04/09 02:49:39;;;;;;;42.50;26.77;;;;;;;4.00;98.11;102169.78;4953616;28;20226;-69
2023/04/09 02:52:11;;;;;;;44.42;25.90;;;;;;;3.93;99.04;102174.81;4951555;29;20700;-69
2023/04/09 02:54:40;;;;;;;44.78;28.63;;;;;;;3.82;100.00;102174.00;4950853;29;20703;-70
2023/04/09 02:57:09;;;;;;;49.05;30.45;;;;;;;3.68;100.00;102175.13;4952553;28;20305;-70
2023/04/09 02:59:39;;;;;;;44.72;28.92;;;;;;;3.56;100.00;102173.47;4951587;29;20347;-71
2023/04/09 03:02:10;;;;;;;61.75;28.98;;;;;;;3.45;100.00;102177.03;4955565;28;20198;-70
2023/04/09 03:04:39;;;;;;;71.32;28.25;;;;;;;3.38;100.00;102174.97;4954813;28;20193;-71
2023/04/09 03:07:08;;;;;;;87.50;31.05;;;;;;;3.36;100.00;102176.91;4965704;28;20193;-71
2023/04/09 03:09:37;;;;;;;69.72;31.70;;;;;;;3.33;100.00;102179.84;4959215;28;20657;-70
2023/04/09 03:12:06;;;;;;;85.72;31.88;;;;;;;3.35;100.00;102175.22;4953348;29;20205;-70
2023/04/09 03:14:35;;;;;;;107.38;32.22;;;;;;;3.26;100.00;102171.47;4952638;28;20226;-70
2023/04/09 03:17:04;;;;;;;55.15;30.08;;;;;;;3.13;100.00;102170.75;4956475;28;20247;-70
2023/04/09 03:19:35;;;;;;;70.47;33.72;;;;;;;3.12;100.00;102173.53;4954011;28;20275;-70
2023/04/09 03:22:04;;;;;;;66.38;35.97;;;;;;;3.10;100.00;102170.97;4945934;28;20358;-68
2023/04/09 03:24:33;;;;;;;67.65;34.15;;;;;;;3.08;100.00;102169.41;4967171;28;20198;-69
2023/04/09 03:27:05;;;;;;;69.07;32.83;;;;;;;3.21;100.00;102167.44;4951415;28;20253;-70
2023/04/09 03:29:35;;;;;;;79.75;32.58;;;;;;;3.22;100.00;102162.00;4951781;29;20225;-68
2023/04/09 03:32:04;;;;;;;119.65;30.55;;;;;;;3.16;100.00;102164.28;4951176;28;20201;-68
2023/04/09 03:34:35;;;;;;;46.85;29.75;;;;;;;3.26;100.00;102159.91;4952353;28;20205;-70
2023/04/09 03:37:04;;;;;;;75.28;28.95;;;;;;;3.12;100.00;102168.19;4953777;28;20716;-69
2023/04/09 03:39:33;;;;;;;61.47;31.25;;;;;;;2.92;100.00;102164.44;4956685;28;20228;-69
2023/04/09 03:42:03;;;;;;;67.65;31.42;;;;;;;2.79;100.00;102158.38;4951459;29;20210;-69
2023/04/09 03:44:42;;;;;;;66.57;31.23;;;;;;;2.75;100.00;102160.44;4967877;28;20204;-70
2023/04/09 03:47:16;;;;;;;65.95;33.70;;;;;;;2.78;100.00;102156.66;4951995;28;20206;-69
2023/04/09 03:49:46;;;;;;;71.13;30.20;;;;;;;2.79;100.00;102156.56;4953851;28;20248;-69
2023/04/09 03:52:23;;;;;;;68.47;30.80;;;;;;;2.91;100.00;102166.25;4968120;28;20220;-69
2023/04/09 03:55:07;;;;;;;85.47;28.75;;;;;;;3.08;100.00;102167.59;4970717;28;20209;-69
2023/04/09 03:57:36;;;;;;;65.32;31.40;;;;;;;3.05;100.00;102157.97;4953322;28;20206;-70
2023/04/09 04:00:10;;;;;;;65.78;29.30;;;;;;;3.13;100.00;102160.06;4953201;28;20748;-70
2023/04/09 04:02:51;;;;;;;65.43;30.88;;;;;;;3.50;100.00;102168.63;4960998;28;20218;-71
2023/04/09 04:05:42;;;;;;;79.65;35.40;;;;;;;3.40;100.00;102163.16;4951643;28;20205;-70
2023/04/09 04:08:15;;;;;;;76.30;35.88;;;;;;;3.32;100.00;102159.41;4953757;28;20237;-71
2023/04/09 04:10:44;;;;;;;63.72;33.63;;;;;;;3.35;100.00;102164.50;4952263;28;20205;-69
2023/04/09 04:13:15;;;;;;;66.32;34.00;;;;;;;3.51;100.00;102164.97;4954922;28;20220;-71
2023/04/09 04:15:51;;;;;;;57.50;32.97;;;;;;;3.40;100.00;102163.16;4963715;28;20209;-71
2023/04/09 04:18:23;;;;;;;69.72;31.20;;;;;;;3.39;100.00;102163.28;4964700;28;20236;-69
2023/04/09 04:20:55;;;;;;;74.38;34.33;;;;;;;3.40;100.00;102165.00;4950932;28;20193;-71
2023/04/09 04:23:24;;;;;;;77.35;32.63;;;;;;;3.40;100.00;102162.31;4951867;28;20225;-72
2023/04/09 04:26:00;;;;;;;72.18;33.78;;;;;;;3.46;100.00;102172.53;4966596;28;20212;-71
2023/04/09 04:28:34;;;;;;;64.70;33.22;;;;;;;3.87;100.00;102161.91;4950340;29;20273;-73
2023/04/09 04:31:07;;;;;;;89.07;32.95;;;;;;;3.80;100.00;102176.81;4952435;29;20737;-71
2023/04/09 04:33:36;;;;;;;94.35;31.98;;;;;;;3.84;100.00;102172.03;4965510;28;20206;-71
2023/04/09 04:36:13;;;;;;;63.22;30.80;;;;;;;3.72;100.00;102173.94;4956287;28;20196;-71
2023/04/09 04:38:47;;;;;;;71.90;32.08;;;;;;;3.76;100.00;102175.38;4951466;28;20225;-71
2023/04/09 04:41:21;;;;;;;61.63;32.72;;;;;;;3.82;100.00;102177.53;4954384;28;20202;-72
2023/04/09 04:43:57;;;;;;;77.45;34.55;;;;;;;4.05;100.00;102178.28;4954210;28;20227;-72
2023/04/09 04:46:26;;;;;;;64.38;30.80;;;;;;;4.01;100.00;102181.34;4950758;28;20225;-70
2023/04/09 04:48:55;;;;;;;82.25;34.35;;;;;;;4.11;100.00;102175.09;4952813;28;20209;-71
2023/04/09 04:51:26;;;;;;;62.90;33.55;;;;;;;4.45;100.00;102175.78;4960718;28;20244;-72
2023/04/09 04:54:11;;;;;;;63.40;32.80;;;;;;;4.59;100.00;102180.78;4952599;28;20218;-74
2023/04/09 04:56:44;;;;;;;70.38;31.40;;;;;;;4.65;100.00;102177.56;4964042;28;20202;-70
2023/04/09 04:59:23;;;;;;;74.63;31.17;;;;;;;4.62;100.00;102176.97;4967621;28;20604;-72
2023/04/09 05:02:03;;;;;;;62.67;30.10;;;;;;;4.59;100.00;102180.78;4951662;28;20205;-69
2023/04/09 05:04:38;;;;;;;77.78;29.15;;;;;;;4.71;100.00;102185.06;4954482;28;20209;-70
2023/04/09 05:07:11;;;;;;;62.92;30.10;;;;;;;4.80;100.00;102181.59;4952143;28;20253;-69
2023/04/09 05:09:48;;;;;;;54.33;30.38;;;;;;;4.58;100.00;102179.09;4974056;28;20259;-71
2023/04/09 05:12:18;;;;;;;67.57;30.17;;;;;;;4.61;100.00;102180.63;4946560;28;20296;-70
2023/04/09 05:14:51;;;;;;;67.05;31.40;;;;;;;4.49;100.00;102177.19;4951775;28;20305;-72
2023/04/09 05:17:21;;;;;;;58.22;30.10;;;;;;;4.68;100.00;102176.47;4962835;28;20617;-70
2023/04/09 05:19:52;;;;;;;59.58;31.83;;;;;;;4.95;100.00;102187.47;4952452;28;20727;-71
2023/04/09 05:22:28;;;;;;;55.00;32.85;;;;;;;5.05;100.00;102187.50;4970152;28;20561;-70
2023/04/09 05:24:58;;;;;;;57.65;31.52;;;;;;;4.93;100.00;102185.91;4970185;28;20199;-71
2023/04/09 05:27:27;;;;;;;69.88;32.00;;;;;;;4.81;100.00;102180.63;4949788;28;20580;-72
2023/04/09 05:30:01;;;;;;;54.38;29.75;;;;;;;5.15;100.00;102188.38;4955239;28;20218;-72
2023/04/09 05:32:30;;;;;;;62.88;31.58;;;;;;;5.41;100.00;102184.25;4954123;28;20286;-70
2023/04/09 05:34:59;;;;;;;63.60;30.90;;;;;;;5.43;100.00;102187.63;4952358;28;20276;-69
2023/04/09 05:37:31;;;;;;;64.15;32.50;;;;;;;5.14;100.00;102192.06;4952972;28;20206;-68
2023/04/09 05:40:01;;;;;;;57.45;31.88;;;;;;;4.99;100.00;102188.03;4957606;28;20228;-70
2023/04/09 05:42:31;;;;;;;59.40;30.17;;;;;;;5.24;100.00;102185.75;4955952;28;20727;-69
2023/04/09 05:45:04;;;;;;;63.25;32.78;;;;;;;5.22;100.00;102193.09;4962347;28;20742;-72
2023/04/09 05:47:33;;;;;;;55.30;29.20;;;;;;;5.54;100.00;102194.72;4954686;28;20198;-71
2023/04/09 05:50:08;;;;;;;52.75;28.02;;;;;;;5.38;100.00;102197.91;4946569;28;20215;-71
2023/04/09 05:52:38;;;;;;;60.22;30.90;;;;;;;5.49;100.00;102197.81;4952901;28;20199;-72
2023/04/09 05:55:09;;;;;;;53.00;28.77;;;;;;;5.71;100.00;102201.28;4953437;28;20199;-70
2023/04/09 05:57:46;;;;;;;56.15;30.45;;;;;;;5.81;100.00;102202.97;4971724;28;20199;-70
2023/04/09 06:00:17;;;;;;;54.35;29.13;;;;;;;5.79;100.00;102204.09;4952528;28;20402;-71
2023/04/09 06:02:47;;;;;;;49.85;28.35;;;;;;;5.95;100.00;102199.06;4946921;28;20621;-70
2023/04/09 06:05:17;;;;;;;51.03;29.27;;;;;;;5.61;100.00;102196.75;4954515;28;20221;-70
2023/04/09 06:07:49;;;;;;;43.08;28.98;;;;;;;5.58;100.00;102196.13;4954650;28;20216;-69
2023/04/09 06:10:18;;;;;;;47.00;29.63;;;;;;;6.09;100.00;102206.72;4945540;29;20195;-70
2023/04/09 06:12:48;;;;;;;51.50;30.13;;;;;;;5.93;100.00;102201.03;4954279;28;20206;-70
2023/04/09 06:15:17;;;;;;;46.00;28.20;;;;;;;6.19;100.00;102199.50;4956287;28;20199;-72
2023/04/09 06:17:46;;;;;;;41.58;27.15;;;;;;;6.15;100.00;102199.94;4949659;28;20191;-71
2023/04/09 06:20:16;;;;;;;42.35;27.13;;;;;;;5.97;100.00;102199.75;4954184;28;20261;-72
2023/04/09 06:22:45;;;;;;;56.03;36.38;;;;;;;5.87;100.00;102199.75;4955727;28;20196;-69
2023/04/09 06:25:15;;;;;;;43.00;24.35;;;;;;;5.91;100.00;102203.84;4958018;28;20199;-72
2023/04/09 06:27:44;;;;;;;40.97;26.30;;;;;;;5.91;100.00;102198.47;4954845;28;20200;-70
2023/04/09 06:30:14;;;;;;;38.72;22.27;;;;;;;6.08;100.00;102208.56;4956292;28;20191;-71
2023/04/09 06:32:44;;;;;;;41.50;23.65;;;;;;;5.60;100.00;102211.16;4956966;28;20229;-71
2023/04/09 06:35:22;;;;;;;50.20;26.15;;;;;;;5.92;100.00;102204.72;4951501;28;20189;-71
2023/04/09 06:37:52;;;;;;;45.40;27.50;;;;;;;5.74;100.00;102211.72;4952412;28;20192;-69
2023/04/09 06:40:22;;;;;;;43.90;26.83;;;;;;;5.57;100.00;102202.50;4958100;28;20240;-71
2023/04/09 06:42:51;;;;;;;40.38;24.27;;;;;;;5.61;100.00;102212.00;4953840;28;20193;-70
2023/04/09 06:45:30;;;;;;;39.28;25.23;;;;;;;5.92;100.00;102216.31;4953913;28;20245;-69
2023/04/09 06:47:59;;;;;;;42.40;25.83;;;;;;;6.11;100.00;102210.94;4953020;28;20273;-70
2023/04/09 06:50:28;;;;;;;31.05;24.10;;;;;;;6.10;100.00;102214.63;4952901;28;20283;-71
2023/04/09 06:52:58;;;;;;;47.30;26.10;;;;;;;6.35;100.00;102215.88;4954221;28;20201;-71
2023/04/09 06:55:28;;;;;;;41.42;25.95;;;;;;;6.34;100.00;102222.25;4958877;28;20625;-70
2023/04/09 06:57:57;;;;;;;40.90;24.08;;;;;;;6.21;100.00;102224.38;4952747;28;20357;-72
2023/04/09 07:00:26;;;;;;;57.47;40.58;;;;;;;6.18;100.00;102224.69;4952658;28;20409;-71
2023/04/09 07:02:56;;;;;;;44.78;25.58;;;;;;;6.19;100.00;102226.38;4962733;28;20199;-70
2023/04/09 07:05:25;;;;;;;49.45;31.50;;;;;;;6.09;100.00;102228.22;4955238;28;20284;-70
2023/04/09 07:07:54;;;;;;;43.30;26.35;;;;;;;6.20;100.00;102233.44;4955597;28;20229;-70
2023/04/09 07:10:24;;;;;;;51.78;30.10;;;;;;;5.97;100.00;102224.78;4947154;28;20195;-72
2023/04/09 07:12:54;;;;;;;46.05;29.92;;;;;;;6.37;100.00;102232.75;4958243;28;20195;-71
2023/04/09 07:15:23;;;;;;;41.13;25.20;;;;;;;6.37;100.00;102231.88;4953264;28;20206;-72
2023/04/09 07:17:52;;;;;;;44.30;26.63;;;;;;;6.57;100.00;102233.56;4959870;28;20284;-71
2023/04/09 07:20:21;;;;;;;50.25;32.58;;;;;;;6.46;100.00;102231.88;4953974;28;20617;-71
2023/04/09 07:22:51;;;;;;;42.05;27.67;;;;;;;6.26;100.00;102237.41;4945496;28;20201;-70
2023/04/09 07:25:20;;;;;;;42.10;25.75;;;;;;;6.46;100.00;102229.19;4948188;28;20196;-70
2023/04/09 07:27:49;;;;;;;48.40;30.08;;;;;;;6.51;100.00;102235.00;4951302;28;20618;-69
2023/04/09 07:30:20;;;;;;;45.78;26.42;;;;;;;6.42;100.00;102235.84;4951771;28;20186;-70
2023/04/09 07:32:49;;;;;;;35.05;24.67;;;;;;;6.53;100.00;102237.53;4947008;28;20836;-71
2023/04/09 07:35:21;;;;;;;40.85;28.77;;;;;;;6.25;100.00;102233.84;4949273;28;20277;-68
2023/04/09 07:37:50;;;;;;;43.50;27.17;;;;;;;6.42;100.00;102235.00;4951311;28;20195;-71
2023/04/09 07:40:20;;;;;;;42.95;26.92;;;;;;;6.66;100.00;102238.09;4949297;28;20226;-68
2023/04/09 07:42:49;;;;;;;46.30;27.77;;;;;;;6.77;99.05;102231.69;4948070;28;20264;-72
2023/04/09 07:45:20;;;;;;;50.78;28.75;;;;;;;6.64;98.45;102234.66;4948456;29;20274;-71
2023/04/09 07:47:49;;;;;;;48.17;30.63;;;;;;;6.67;100.00;102233.56;4951064;28;20730;-73
2023/04/09 07:50:18;;;;;;;46.20;28.98;;;;;;;7.08;98.22;102238.53;4955796;28;20277;-71
2023/04/09 07:52:47;;;;;;;43.00;27.20;;;;;;;7.30;97.50;102234.63;4952514;28;20621;-71
2023/04/09 07:55:17;;;;;;;43.05;27.55;;;;;;;7.43;95.42;102241.38;4950752;28;20596;-72
2023/04/09 07:57:47;;;;;;;43.78;27.88;;;;;;;7.05;97.09;102238.00;4950720;28;20197;-73
2023/04/09 08:00:17;;;;;;;35.78;26.50;;;;;;;7.41;96.32;102240.66;4954520;28;20292;-71
2023/04/09 08:02:47;;;;;;;39.70;24.85;;;;;;;7.41;95.42;102245.19;4949421;28;20204;-72
2023/04/09 08:05:17;;;;;;;48.05;26.90;;;;;;;7.33;95.73;102245.94;4957269;28;20199;-70
2023/04/09 08:07:46;;;;;;;44.75;29.00;;;;;;;7.07;96.55;102247.59;4951424;28;20225;-72
2023/04/09 08:10:15;;;;;;;42.38;26.40;;;;;;;7.19;97.33;102246.44;4963674;28;20239;-71
2023/04/09 08:12:44;;;;;;;38.50;25.65;;;;;;;7.29;95.50;102241.88;4957950;28;20597;-73
2023/04/09 08:15:14;;;;;;;46.47;27.77;;;;;;;7.43;94.85;102252.16;4952927;28;20205;-70
2023/04/09 08:17:43;;;;;;;43.72;25.35;;;;;;;7.63;93.77;102260.13;4952057;28;20210;-68
2023/04/09 08:20:15;;;;;;;43.42;26.75;;;;;;;7.79;92.82;102258.47;4954119;28;20305;-71
2023/04/09 08:22:45;;;;;;;42.22;25.75;;;;;;;7.66;91.95;102259.81;4951253;28;20219;-72
2023/04/09 08:25:14;;;;;;;43.42;29.42;;;;;;;7.35;94.06;102256.59;4953239;28;20221;-71
2023/04/09 08:27:43;;;;;;;40.17;25.52;;;;;;;7.39;94.45;102253.44;4950427;28;20213;-70
2023/04/09 08:30:13;;;;;;;45.13;25.83;;;;;;;7.34;95.01;102255.75;4949767;28;20720;-73
2023/04/09 08:32:44;;;;;;;48.30;30.08;;;;;;;7.21;96.95;102259.75;4945848;28;20718;-71
2023/04/09 08:35:15;;;;;;;40.92;25.77;;;;;;;7.38;96.08;102257.13;4952022;28;20220;-71
2023/04/09 08:37:46;;;;;;;43.60;26.15;;;;;;;7.63;95.66;102260.13;4951148;28;20283;-73
2023/04/09 08:40:15;;;;;;;45.65;26.77;;;;;;;7.93;93.82;102257.13;4950635;28;20209;-71
2023/04/09 08:42:45;;;;;;;40.95;27.10;;;;;;;8.05;91.66;102261.28;4958190;28;20208;-71
2023/04/09 08:45:15;;;;;;;39.72;26.00;;;;;;;7.97;92.32;102263.91;4961663;28;20224;-70
2023/04/09 08:47:48;;;;;;;37.63;24.58;;;;;;;7.76;93.13;102263.31;4959988;28;20193;-72
2023/04/09 08:50:19;;;;;;;43.50;29.45;;;;;;;7.95;92.67;102257.81;4960074;28;20195;-73
2023/04/09 08:52:49;;;;;;;40.95;25.00;;;;;;;7.66;93.43;102262.53;4969969;28;20284;-71
2023/04/09 08:55:18;;;;;;;43.05;30.17;;;;;;;7.59;94.47;102258.75;4957064;28;20242;-69
2023/04/09 08:57:47;;;;;;;36.90;23.98;;;;;;;7.84;93.97;102263.44;4949874;28;20657;-71
2023/04/09 09:00:16;;;;;;;43.75;27.02;;;;;;;7.69;93.37;102263.09;4961024;28;20283;-72
2023/04/09 09:03:04;;;;;;;42.20;25.25;;;;;;;7.53;94.97;102259.34;4961299;28;20237;-71
2023/04/09 09:05:39;;;;;;;32.63;23.48;;;;;;;8.08;93.22;102250.22;4973915;28;20197;-73
2023/04/09 09:08:09;;;;;;;34.63;25.65;;;;;;;8.25;90.93;102252.06;4955847;28;20223;-72
2023/04/09 09:10:40;;;;;;;41.85;25.45;;;;;;;8.48;89.37;102249.75;4953294;29;20189;-73
2023/04/09 09:13:21;;;;;;;44.72;28.10;;;;;;;8.13;89.82;102249.75;4960433;28;20190;-72
2023/04/09 09:15:54;;;;;;;39.22;25.38;;;;;;;8.24;89.31;102255.75;4956301;29;20272;-72
2023/04/09 09:18:39;;;;;;;38.15;23.90;;;;;;;8.14;89.27;102256.81;4958379;28;20221;-73
2023/04/09 09:21:14;;;;;;;38.60;23.58;;;;;;;8.44;88.17;102256.47;4953244;29;20711;-74
2023/04/09 09:23:44;;;;;;;37.45;23.75;;;;;;;8.48;88.49;102263.25;4973019;28;20204;-70
2023/04/09 09:26:15;;;;;;;36.42;24.20;;;;;;;8.01;89.93;102254.50;4955716;28;20194;-71
2023/04/09 09:28:45;;;;;;;41.97;25.65;;;;;;;8.11;91.29;102251.75;4954165;28;20612;-71
2023/04/09 09:31:15;;;;;;;45.35;26.35;;;;;;;8.25;89.82;102252.06;4963960;28;20193;-73
2023/04/09 09:33:45;;;;;;;41.80;25.25;;;;;;;8.39;88.96;102248.00;4957491;28;20205;-74
2023/04/09 09:36:30;;;;;;;40.10;24.73;;;;;;;8.52;88.70;102253.84;4946779;28;20255;-72
2023/04/09 09:39:04;;;;;;;39.08;23.88;;;;;;;9.09;85.83;102254.25;4957254;28;20245;-73
2023/04/09 09:41:33;;;;;;;49.65;33.55;;;;;;;9.35;84.02;102256.91;4962585;28;20233;-73
2023/04/09 09:44:03;;;;;;;40.78;35.53;;;;;;;9.30;83.92;102249.31;4953943;28;20281;-72
2023/04/09 09:46:35;;;;;;;37.22;26.92;;;;;;;9.01;84.97;102249.66;4952975;28;20261;-72
2023/04/09 09:49:05;;;;;;;43.17;30.00;;;;;;;8.54;87.46;102248.28;4961205;28;20304;-71
2023/04/09 09:51:39;;;;;;;50.50;34.25;;;;;;;8.59;88.05;102248.66;4959292;28;20198;-73
2023/04/09 09:54:11;;;;;;;47.83;32.97;;;;;;;8.84;87.11;102253.25;4957453;29;20191;-74
2023/04/09 09:56:42;;;;;;;38.38;28.70;;;;;;;8.89;86.20;102239.28;4958784;28;20194;-70
2023/04/09 09:59:16;;;;;;;41.97;29.23;;;;;;;8.81;86.52;102241.94;4959736;28;20224;-70
2023/04/09 10:01:47;;;;;;;50.88;38.17;;;;;;;8.67;88.13;102235.22;4956200;29;20212;-71
2023/04/09 10:04:18;;;;;;;52.70;40.78;;;;;;;8.88;87.51;102241.13;4957629;28;20249;-71
2023/04/09 10:06:50;;;;;;;38.50;22.83;;;;;;;9.03;86.06;102234.16;4961777;28;20211;-72
2023/04/09 10:09:23;;;;;;;34.97;26.45;;;;;;;9.02;86.33;102234.28;4961335;28;20622;-72
2023/04/09 10:11:52;;;;;;;34.80;23.75;;;;;;;9.29;84.36;102231.44;4959352;28;20191;-73
2023/04/09 10:14:23;;;;;;;35.45;25.05;;;;;;;8.81;86.21;102231.97;4962598;28;20624;-75
2023/04/09 10:16:52;;;;;;;40.88;31.63;;;;;;;8.96;85.22;102230.38;4956441;28;20202;-73
2023/04/09 10:19:22;;;;;;;44.40;35.78;;;;;;;9.16;84.58;102229.16;4964650;28;20545;-70
2023/04/09 10:21:59;;;;;;;41.78;28.90;;;;;;;9.26;85.10;102226.31;4954483;28;20681;-71
2023/04/09 10:24:28;;;;;;;38.30;22.98;;;;;;;9.07;85.96;102226.56;4953067;28;20213;-70
2023/04/09 10:27:09;;;;;;;28.23;21.50;;;;;;;8.65;87.78;102226.47;4953018;28;20189;-71
2023/04/09 10:29:45;;;;;;;33.95;22.67;;;;;;;9.07;84.55;102235.50;4956536;28;20221;-70
2023/04/09 10:32:19;;;;;;;39.78;25.23;;;;;;;9.36;83.51;102232.47;4953425;28;20208;-71
2023/04/09 10:34:49;;;;;;;29.27;21.88;;;;;;;9.25;84.58;102230.03;4964600;28;20310;-70
2023/04/09 10:37:24;;;;;;;32.95;23.70;;;;;;;9.18;84.16;102233.53;4958425;28;20606;-71
2023/04/09 10:39:56;;;;;;;33.15;23.70;;;;;;;9.54;82.74;102235.06;4953148;29;20661;-69
2023/04/09 10:42:33;;;;;;;35.78;23.10;;;;;;;9.80;82.45;102240.41;4952343;29;20208;-74
2023/04/09 10:45:09;;;;;;;37.25;26.38;;;;;;;9.87;81.36;102239.59;4953337;28;20202;-71
2023/04/09 10:47:41;;;;;;;33.13;22.50;;;;;;;9.72;81.39;102238.53;4955972;28;20668;-73
2023/04/09 10:50:18;;;;;;;33.97;22.17;;;;;;;9.67;81.33;102238.16;4953999;28;20516;-71
2023/04/09 10:52:55;;;;;;;42.33;22.27;;;;;;;10.17;79.08;102231.88;4954580;28;20190;-71
2023/04/09 10:55:38;;;;;;;44.70;22.60;;;;;;;10.00;79.63;102236.41;4967047;28;20720;-71
2023/04/09 10:58:08;;;;;;;33.47;23.55;;;;;;;10.21;78.47;102231.41;4947350;29;20472;-72
2023/04/09 11:00:42;;;;;;;33.83;21.40;;;;;;;10.31;78.70;102234.75;4955090;28;20218;-72
2023/04/09 11:03:30;;;;;;;38.72;22.65;;;;;;;9.84;80.11;102231.78;4952448;28;20235;-72
2023/04/09 11:06:04;;;;;;;29.35;20.33;;;;;;;9.64;80.89;102224.97;4954432;28;20219;-72
2023/04/09 11:08:36;;;;;;;35.03;22.23;;;;;;;10.02;79.35;102226.28;4952667;28;20281;-71
2023/04/09 11:11:06;;;;;;;27.60;19.80;;;;;;;10.41;76.22;102221.91;4960656;28;20521;-72
2023/04/09 11:13:42;;;;;;;31.50;21.23;;;;;;;10.18;76.87;102228.16;4951149;28;20433;-73
2023/04/09 11:16:12;;;;;;;30.27;21.15;;;;;;;10.24;76.75;102225.66;4955799;28;20429;-71
2023/04/09 11:18:55;;;;;;;27.20;19.77;;;;;;;10.27;75.79;102229.84;4959874;28;20737;-72
2023/04/09 11:21:28;;;;;;;31.30;18.53;;;;;;;10.56;75.20;102226.66;4954351;28;20808;-71
2023/04/09 11:23:58;;;;;;;30.17;18.33;;;;;;;10.47;76.06;102223.09;4954697;28;20433;-70
2023/04/09 11:26:36;;;;;;;31.03;19.37;;;;;;;11.11;74.09;102221.31;4953172;28;20986;-71
2023/04/09 11:29:08;;;;;;;25.47;19.70;;;;;;;11.17;73.29;102226.06;4950479;28;20435;-72
2023/04/09 11:31:37;;;;;;;33.07;22.20;;;;;;;10.94;73.50;102230.53;4954088;28;20453;-71
2023/04/09 11:34:11;;;;;;;26.73;19.07;;;;;;;10.83;73.88;102232.56;4960088;28;20991;-71